createdAt,value
2018-04-08T00:01:29.030Z,100799.32
2018-04-08T00:03:54.766Z,100797.92
2018-04-08T00:06:20.514Z,100792.00
2018-04-08T00:08:46.281Z,100796.34
2018-04-08T00:11:12.038Z,100795.58
2018-04-08T00:13:37.772Z,100790.63
2018-04-08T00:16:03.526Z,100787.94
2018-04-08T00:18:29.262Z,100785.96
2018-04-08T00:20:54.989Z,100784.67
2018-04-08T00:23:20.739Z,100785.74
2018-04-08T00:25:46.519Z,100781.91
2018-04-08T00:28:12.259Z,100788.21
2018-04-08T00:30:37.990Z,100792.08
2018-04-08T00:33:03.734Z,100783.97
2018-04-08T00:35:29.468Z,100780.36
2018-04-08T00:37:55.214Z,100781.53
2018-04-08T00:40:20.953Z,100780.33
2018-04-08T00:42:46.707Z,100772.19
2018-04-08T00:45:12.458Z,100771.25
2018-04-08T00:47:38.210Z,100771.59
2018-04-08T00:50:03.965Z,100767.24
2018-04-08T00:52:29.712Z,100765.48
2018-04-08T00:54:55.470Z,100768.50
2018-04-08T00:57:21.217Z,100758.77
2018-04-08T00:59:46.961Z,100748.87
2018-04-08T01:02:12.711Z,100753.52
2018-04-08T01:04:38.442Z,100758.53
2018-04-08T01:07:04.202Z,100749.63
2018-04-08T01:09:29.921Z,100744.45
2018-04-08T01:11:55.650Z,100743.98
2018-04-08T01:14:21.376Z,100738.20
2018-04-08T01:16:47.126Z,100739.40
2018-04-08T01:19:12.853Z,100741.13
2018-04-08T01:21:38.602Z,100743.53
2018-04-08T01:24:04.336Z,100740.99
2018-04-08T01:26:30.066Z,100745.03
2018-04-08T01:28:55.798Z,100743.80
2018-04-08T01:31:21.545Z,100740.83
2018-04-08T01:33:47.299Z,100747.88
2018-04-08T01:36:13.057Z,100737.25
2018-04-08T01:38:38.794Z,100742.26
2018-04-08T01:41:04.531Z,100744.98
2018-04-08T01:43:30.268Z,100733.70
2018-04-08T01:45:56.004Z,100728.02
2018-04-08T01:48:21.756Z,100737.86
2018-04-08T01:50:47.491Z,100730.92
2018-04-08T01:53:13.238Z,100730.77
2018-04-08T01:55:38.984Z,100728.22
2018-04-08T01:58:04.730Z,100735.87
2018-04-08T02:00:30.459Z,100730.08
2018-04-08T02:02:56.190Z,100737.70
2018-04-08T02:05:21.937Z,100740.98
2018-04-08T02:07:47.695Z,100739.02
2018-04-08T02:10:13.413Z,100745.78
2018-04-08T02:12:39.142Z,100737.09
2018-04-08T02:15:04.874Z,100733.94
2018-04-08T02:17:30.621Z,100739.75
2018-04-08T02:19:56.352Z,100732.85
2018-04-08T02:22:22.085Z,100736.09
2018-04-08T02:24:47.814Z,100737.61
2018-04-08T02:27:13.574Z,100741.56
2018-04-08T02:29:39.311Z,100739.16
2018-04-08T02:32:05.067Z,100740.39
2018-04-08T02:34:30.801Z,100737.97
2018-04-08T02:36:56.560Z,100738.25
2018-04-08T02:39:22.316Z,100738.33
2018-04-08T02:41:48.074Z,100740.77
2018-04-08T02:44:13.805Z,100738.48
2018-04-08T02:46:39.557Z,100728.41
2018-04-08T02:49:05.307Z,100737.19
2018-04-08T02:51:31.040Z,100734.96
2018-04-08T02:53:56.807Z,100731.06
2018-04-08T02:56:22.545Z,100728.56
2018-04-08T02:58:48.290Z,100725.52
2018-04-08T03:01:14.030Z,100728.72
2018-04-08T03:03:39.787Z,100727.69
2018-04-08T03:06:05.557Z,100730.24
2018-04-08T03:08:31.307Z,100737.01
2018-04-08T03:10:57.050Z,100733.60
2018-04-08T03:13:22.806Z,100736.67
2018-04-08T03:15:48.558Z,100726.48
2018-04-08T03:18:14.308Z,100729.00
2018-04-08T03:20:40.068Z,100729.26
2018-04-08T03:23:05.814Z,100732.72
2018-04-08T03:25:31.560Z,100731.97
2018-04-08T03:27:57.309Z,100737.81
2018-04-08T03:30:23.038Z,100728.36
2018-04-08T03:32:48.790Z,100733.22
2018-04-08T03:35:14.522Z,100716.98
2018-04-08T03:37:40.267Z,100723.85
2018-04-08T03:40:05.989Z,100719.20
2018-04-08T03:42:31.734Z,100716.45
2018-04-08T03:44:57.465Z,100721.48
2018-04-08T03:47:23.228Z,100719.84
2018-04-08T03:49:48.994Z,100715.62
2018-04-08T03:52:14.739Z,100713.45
2018-04-08T03:54:40.513Z,100714.41
2018-04-08T03:57:06.313Z,100714.13
2018-04-08T03:59:32.075Z,100727.09
2018-04-08T04:01:57.827Z,100718.39
2018-04-08T04:04:23.587Z,100720.54
2018-04-08T04:06:49.340Z,100723.53
2018-04-08T04:09:15.088Z,100725.95
2018-04-08T04:11:40.826Z,100722.45
2018-04-08T04:14:06.581Z,100717.31
2018-04-08T04:16:32.342Z,100714.87
2018-04-08T04:19:10.433Z,100714.74
2018-04-08T04:21:48.590Z,100718.75
2018-04-08T04:24:26.650Z,100721.52
2018-04-08T04:26:52.390Z,100725.77
2018-04-08T04:29:18.165Z,100724.48
2018-04-08T04:31:43.919Z,100720.14
2018-04-08T04:34:09.670Z,100717.59
2018-04-08T04:36:35.426Z,100721.29
2018-04-08T04:39:01.170Z,100721.18
2018-04-08T04:41:26.910Z,100719.86
2018-04-08T04:43:52.661Z,100715.66
2018-04-08T04:46:18.402Z,100720.51
2018-04-08T04:48:44.158Z,100718.33
2018-04-08T04:51:09.899Z,100716.77
2018-04-08T04:53:35.674Z,100719.77
2018-04-08T04:56:01.434Z,100715.81
2018-04-08T04:58:27.181Z,100722.39
2018-04-08T05:00:52.926Z,100715.74
2018-04-08T05:03:18.698Z,100719.70
2018-04-08T05:05:44.448Z,100716.56
2018-04-08T05:08:10.192Z,100716.47
2018-04-08T05:10:35.953Z,100712.06
2018-04-08T05:13:01.689Z,100715.11
2018-04-08T05:15:27.428Z,100714.02
2018-04-08T05:17:53.160Z,100714.19
2018-04-08T05:20:18.909Z,100716.95
2018-04-08T05:22:44.671Z,100712.77
2018-04-08T05:25:10.417Z,100714.63
2018-04-08T05:27:36.146Z,100705.56
2018-04-08T05:30:01.890Z,100705.27
2018-04-08T05:32:27.631Z,100713.09
2018-04-08T05:34:53.381Z,100706.41
2018-04-08T05:37:19.132Z,100708.98
2018-04-08T05:39:44.894Z,100707.53
2018-04-08T05:42:10.637Z,100706.56
2018-04-08T05:44:36.373Z,100708.13
2018-04-08T05:47:02.117Z,100706.30
2018-04-08T05:49:27.873Z,100708.72
2018-04-08T05:51:53.633Z,100703.64
2018-04-08T05:54:19.402Z,100699.04
2018-04-08T05:56:45.146Z,100699.27
2018-04-08T05:59:10.881Z,100695.51
2018-04-08T06:01:36.630Z,100696.47
2018-04-08T06:04:02.391Z,100697.86
2018-04-08T06:06:28.149Z,100693.76
2018-04-08T06:08:53.902Z,100698.16
2018-04-08T06:11:19.634Z,100699.47
2018-04-08T06:13:45.365Z,100698.85
2018-04-08T06:16:11.125Z,100694.98
2018-04-08T06:18:36.872Z,100703.62
2018-04-08T06:21:02.622Z,100701.28
2018-04-08T06:23:28.362Z,100700.58
2018-04-08T06:25:54.118Z,100700.17
2018-04-08T06:28:19.854Z,100704.89
2018-04-08T06:30:45.613Z,100695.61
2018-04-08T06:33:11.354Z,100697.73
2018-04-08T06:35:37.134Z,100697.06
2018-04-08T06:38:02.908Z,100699.06
2018-04-08T06:40:28.660Z,100694.90
2018-04-08T06:42:54.401Z,100693.16
2018-04-08T06:45:20.142Z,100694.45
2018-04-08T06:47:45.902Z,100693.87
2018-04-08T06:50:11.675Z,100691.31
2018-04-08T06:52:37.442Z,100689.40
2018-04-08T06:55:03.202Z,100692.39
2018-04-08T06:57:28.936Z,100688.16
2018-04-08T06:59:54.681Z,100690.41
2018-04-08T07:02:20.421Z,100693.65
2018-04-08T07:04:46.174Z,100691.77
2018-04-08T07:07:11.927Z,100692.23
2018-04-08T07:09:37.702Z,100688.37
2018-04-08T07:12:03.487Z,100674.63
2018-04-08T07:14:29.202Z,100674.67
2018-04-08T07:16:54.942Z,100667.30
2018-04-08T07:19:20.681Z,100660.47
2018-04-08T07:21:46.425Z,100663.45
2018-04-08T07:24:12.162Z,100664.52
2018-04-08T07:26:37.906Z,100665.22
2018-04-08T07:29:03.634Z,100665.50
2018-04-08T07:31:29.375Z,100664.21
2018-04-08T07:33:55.104Z,100660.44
2018-04-08T07:36:20.842Z,100664.28
2018-04-08T07:38:46.575Z,100663.83
2018-04-08T07:41:12.319Z,100664.73
2018-04-08T07:43:38.047Z,100656.28
2018-04-08T07:46:03.796Z,100652.28
2018-04-08T07:48:29.533Z,100657.17
2018-04-08T07:50:55.284Z,100657.02
2018-04-08T07:53:21.038Z,100665.78
2018-04-08T07:55:46.784Z,100663.25
2018-04-08T07:58:12.510Z,100658.11
2018-04-08T08:00:38.249Z,100667.20
2018-04-08T08:03:03.984Z,100665.21
2018-04-08T08:05:29.722Z,100670.29
2018-04-08T08:07:55.453Z,100677.19
2018-04-08T08:10:21.186Z,100685.70
2018-04-08T08:12:46.905Z,100687.55
2018-04-08T08:15:12.658Z,100684.73
2018-04-08T08:17:38.394Z,100689.42
2018-04-08T08:20:04.146Z,100687.49
2018-04-08T08:22:29.894Z,100684.87
2018-04-08T08:24:55.621Z,100675.86
2018-04-08T08:27:21.376Z,100680.64
2018-04-08T08:29:47.150Z,100680.09
2018-04-08T08:32:12.899Z,100674.80
2018-04-08T08:34:38.637Z,100672.56
2018-04-08T08:37:04.391Z,100670.03
2018-04-08T08:39:30.122Z,100672.40
2018-04-08T08:41:55.876Z,100675.13
2018-04-08T08:44:21.599Z,100675.98
2018-04-08T08:46:47.350Z,100673.58
2018-04-08T08:49:13.130Z,100667.53
2018-04-08T08:51:38.853Z,100671.69
2018-04-08T08:54:04.596Z,100662.53
2018-04-08T08:56:30.341Z,100666.31
2018-04-08T08:58:56.109Z,100663.38
2018-04-08T09:01:21.858Z,100666.27
2018-04-08T09:03:47.607Z,100660.94
2018-04-08T09:06:13.364Z,100657.34
2018-04-08T09:08:39.102Z,100658.90
2018-04-08T09:11:04.848Z,100655.34
2018-04-08T09:13:30.589Z,100659.97
2018-04-08T09:15:56.344Z,100656.91
2018-04-08T09:18:22.122Z,100656.94
2018-04-08T09:20:47.886Z,100655.80
2018-04-08T09:23:13.631Z,100657.31
2018-04-08T09:25:39.382Z,100651.16
2018-04-08T09:28:05.270Z,100655.59
2018-04-08T09:30:31.026Z,100648.09
2018-04-08T09:32:57.566Z,100654.37
2018-04-08T09:35:23.310Z,100653.24
2018-04-08T09:37:49.561Z,100651.38
2018-04-08T09:40:15.333Z,100653.34
2018-04-08T09:42:41.127Z,100650.42
2018-04-08T09:45:06.878Z,100651.95
2018-04-08T09:47:32.646Z,100645.66
2018-04-08T09:49:58.392Z,100650.66
2018-04-08T09:52:24.152Z,100648.55
2018-04-08T09:54:50.072Z,100646.25
2018-04-08T09:57:16.235Z,100641.29
2018-04-08T09:59:41.997Z,100645.01
2018-04-08T10:02:13.946Z,100644.78
2018-04-08T10:04:39.699Z,100641.48
2018-04-08T10:07:05.484Z,100638.78
2018-04-08T10:09:32.047Z,100639.75
2018-04-08T10:11:57.813Z,100633.73
2018-04-08T10:14:23.560Z,100635.17
2018-04-08T10:16:49.325Z,100640.30
2018-04-08T10:19:15.074Z,100639.07
2018-04-08T10:21:40.849Z,100637.27
2018-04-08T10:24:06.603Z,100637.11
2018-04-08T10:26:32.337Z,100636.41
2018-04-08T10:28:58.147Z,100632.75
2018-04-08T10:31:23.905Z,100635.55
2018-04-08T10:33:49.685Z,100629.49
2018-04-08T10:36:15.440Z,100632.01
2018-04-08T10:38:41.201Z,100628.45
2018-04-08T10:41:06.972Z,100624.41
2018-04-08T10:43:32.728Z,100619.07
2018-04-08T10:45:58.517Z,100628.20
2018-04-08T10:48:24.289Z,100617.19
2018-04-08T10:50:50.044Z,100621.83
2018-04-08T10:53:15.795Z,100616.53
2018-04-08T10:55:41.550Z,100612.40
2018-04-08T10:58:07.339Z,100607.77
2018-04-08T11:00:33.077Z,100615.26
2018-04-08T11:02:58.836Z,100610.45
2018-04-08T11:05:24.578Z,100603.06
2018-04-08T11:07:50.336Z,100601.19
2018-04-08T11:10:16.131Z,100597.09
2018-04-08T11:12:41.849Z,100596.22
2018-04-08T11:15:07.596Z,100597.73
2018-04-08T11:17:33.353Z,100597.70
2018-04-08T11:19:59.082Z,100596.91
2018-04-08T11:22:24.864Z,100587.88
2018-04-08T11:24:50.621Z,100589.82
2018-04-08T11:27:16.380Z,100593.64
2018-04-08T11:29:42.150Z,100590.51
2018-04-08T11:32:07.881Z,100590.80
2018-04-08T11:34:34.572Z,100582.56
2018-04-08T11:37:00.315Z,100582.79
2018-04-08T11:39:26.076Z,100583.92
2018-04-08T11:41:51.816Z,100588.70
2018-04-08T11:44:17.578Z,100585.84
2018-04-08T11:46:43.330Z,100578.30
2018-04-08T11:49:09.086Z,100579.95
2018-04-08T11:51:34.853Z,100574.70
2018-04-08T11:54:00.601Z,100576.20
2018-04-08T11:56:26.356Z,100577.20
2018-04-08T11:58:52.135Z,100572.21
2018-04-08T12:01:17.875Z,100573.38
2018-04-08T12:03:43.641Z,100571.12
2018-04-08T12:06:09.378Z,100566.92
2018-04-08T12:08:35.145Z,100568.42
2018-04-08T12:11:00.887Z,100573.52
2018-04-08T12:13:26.625Z,100560.58
2018-04-08T12:15:52.394Z,100561.19
2018-04-08T12:18:18.145Z,100563.02
2018-04-08T12:20:43.942Z,100554.00
2018-04-08T12:23:09.680Z,100555.02
2018-04-08T12:25:35.440Z,100554.47
2018-04-08T12:28:01.206Z,100547.74
2018-04-08T12:30:26.974Z,100547.89
2018-04-08T12:32:52.729Z,100547.42
2018-04-08T12:35:18.500Z,100545.91
2018-04-08T12:37:44.230Z,100546.48
2018-04-08T12:40:09.987Z,100541.17
2018-04-08T12:42:35.722Z,100542.34
2018-04-08T12:45:01.473Z,100540.58
2018-04-08T12:47:27.223Z,100530.98
2018-04-08T12:49:52.968Z,100536.77
2018-04-08T12:52:18.695Z,100538.27
2018-04-08T12:54:44.526Z,100536.89
2018-04-08T12:57:10.351Z,100531.70
2018-04-08T12:59:36.122Z,100536.63
2018-04-08T13:02:01.874Z,100527.45
2018-04-08T13:04:27.683Z,100530.00
2018-04-08T13:06:53.438Z,100528.25
2018-04-08T13:09:19.183Z,100527.88
2018-04-08T13:11:44.959Z,100530.20
2018-04-08T13:14:10.772Z,100526.38
2018-04-08T13:16:36.505Z,100518.46
2018-04-08T13:19:02.266Z,100518.42
2018-04-08T13:21:28.031Z,100516.14
2018-04-08T13:23:53.774Z,100511.13
2018-04-08T13:26:19.526Z,100507.00
2018-04-08T13:28:45.265Z,100514.06
2018-04-08T13:31:11.029Z,100504.98
2018-04-08T13:33:36.767Z,100505.52
2018-04-08T13:36:02.521Z,100500.07
2018-04-08T13:38:28.258Z,100497.47
2018-04-08T13:40:54.003Z,100496.95
2018-04-08T13:43:19.753Z,100488.87
2018-04-08T13:45:45.515Z,100486.25
2018-04-08T13:48:11.249Z,100486.75
2018-04-08T13:50:36.990Z,100485.56
2018-04-08T13:53:02.729Z,100486.47
2018-04-08T13:55:28.502Z,100481.35
2018-04-08T13:57:54.251Z,100473.41
2018-04-08T14:00:19.985Z,100480.78
2018-04-08T14:02:45.738Z,100474.97
2018-04-08T14:05:11.469Z,100470.02
2018-04-08T14:07:37.202Z,100468.84
2018-04-08T14:10:02.961Z,100460.05
2018-04-08T14:12:28.710Z,100462.14
2018-04-08T14:14:54.425Z,100460.03
2018-04-08T14:17:20.168Z,100463.54
2018-04-08T14:19:45.958Z,100460.99
2018-04-08T14:22:11.706Z,100461.22
2018-04-08T14:24:37.516Z,100467.64
2018-04-08T14:27:03.209Z,100459.25
2018-04-08T14:29:28.981Z,100455.22
2018-04-08T14:31:54.716Z,100459.77
2018-04-08T14:34:20.445Z,100461.63
2018-04-08T14:36:46.192Z,100459.11
2018-04-08T14:39:11.927Z,100461.69
2018-04-08T14:41:37.670Z,100461.25
2018-04-08T14:44:03.412Z,100452.41
2018-04-08T14:46:29.159Z,100454.94
2018-04-08T14:48:54.901Z,100447.62
2018-04-08T14:51:20.680Z,100443.63
2018-04-08T14:53:46.428Z,100449.63
2018-04-08T14:56:12.184Z,100441.00
2018-04-08T14:58:37.935Z,100437.31
2018-04-08T15:01:03.707Z,100443.61
2018-04-08T15:03:29.442Z,100440.81
2018-04-08T15:05:55.201Z,100433.86
2018-04-08T15:08:20.986Z,100434.99
2018-04-08T15:10:46.733Z,100435.32
2018-04-08T15:13:12.494Z,100442.48
2018-04-08T15:15:38.246Z,100432.95
2018-04-08T15:18:04.012Z,100431.27
2018-04-08T15:20:29.772Z,100426.78
2018-04-08T15:22:55.534Z,100428.84
2018-04-08T15:25:21.275Z,100425.55
2018-04-08T15:27:47.028Z,100423.50
2018-04-08T15:30:12.790Z,100418.16
2018-04-08T15:32:38.561Z,100424.60
2018-04-08T15:35:04.293Z,100422.08
2018-04-08T15:37:30.053Z,100422.93
2018-04-08T15:39:55.783Z,100419.45
2018-04-08T15:42:21.541Z,100414.44
2018-04-08T15:44:47.274Z,100417.80
2018-04-08T15:47:13.036Z,100410.14
2018-04-08T15:49:38.769Z,100417.39
2018-04-08T15:52:04.534Z,100414.62
2018-04-08T15:54:30.282Z,100416.63
2018-04-08T15:56:56.078Z,100416.14
2018-04-08T15:59:21.801Z,100412.66
2018-04-08T16:01:47.549Z,100412.51
2018-04-08T16:04:13.281Z,100416.12
2018-04-08T16:06:39.042Z,100421.33
2018-04-08T16:09:05.777Z,100417.13
2018-04-08T16:11:31.535Z,100416.19
2018-04-08T16:13:57.272Z,100418.99
2018-04-08T16:16:24.432Z,100412.17
2018-04-08T16:18:50.293Z,100418.91
2018-04-08T16:21:16.042Z,100417.67
2018-04-08T16:23:41.830Z,100420.92
2018-04-08T16:26:07.567Z,100417.95
2018-04-08T16:28:33.378Z,100421.02
2018-04-08T16:30:59.157Z,100424.46
2018-04-08T16:33:24.937Z,100424.71
2018-04-08T16:35:50.691Z,100428.27
2018-04-08T16:38:16.447Z,100425.64
2018-04-08T16:40:42.224Z,100420.00
2018-04-08T16:43:07.977Z,100427.91
2018-04-08T16:45:33.755Z,100423.86
2018-04-08T16:47:59.525Z,100435.12
2018-04-08T16:50:25.271Z,100426.10
2018-04-08T16:52:51.014Z,100425.45
2018-04-08T16:55:16.779Z,100427.92
2018-04-08T16:57:42.526Z,100431.67
2018-04-08T17:00:08.309Z,100427.39
2018-04-08T17:02:34.058Z,100428.27
2018-04-08T17:04:59.810Z,100427.39
2018-04-08T17:07:25.621Z,100429.19
2018-04-08T17:09:51.373Z,100430.19
2018-04-08T17:12:17.107Z,100430.41
2018-04-08T17:14:42.866Z,100435.00
2018-04-08T17:17:08.637Z,100432.47
2018-04-08T17:19:34.383Z,100432.19
2018-04-08T17:22:00.120Z,100431.52
2018-04-08T17:24:25.892Z,100442.83
2018-04-08T17:26:51.634Z,100444.05
2018-04-08T17:29:17.394Z,100443.79
2018-04-08T17:31:43.141Z,100444.64
2018-04-08T17:34:08.895Z,100438.16
2018-04-08T17:36:34.627Z,100445.02
2018-04-08T17:39:00.378Z,100443.61
2018-04-08T17:41:26.118Z,100449.95
2018-04-08T17:43:51.861Z,100451.69
2018-04-08T17:46:17.598Z,100456.02
2018-04-08T17:48:43.346Z,100447.61
2018-04-08T17:51:09.074Z,100449.59
2018-04-08T17:53:34.821Z,100453.19
2018-04-08T17:56:00.578Z,100455.08
2018-04-08T17:58:26.310Z,100454.89
2018-04-08T18:00:52.059Z,100454.02
2018-04-08T18:03:17.817Z,100451.39
2018-04-08T18:05:43.554Z,100457.98
2018-04-08T18:08:09.290Z,100465.36
2018-04-08T18:10:35.038Z,100463.80
2018-04-08T18:13:00.770Z,100467.94
2018-04-08T18:15:26.553Z,100462.73
2018-04-08T18:17:52.278Z,100459.98
2018-04-08T18:20:18.021Z,100460.89
2018-04-08T18:22:43.759Z,100471.39
2018-04-08T18:25:09.505Z,100469.76
2018-04-08T18:27:35.249Z,100471.17
2018-04-08T18:30:01.009Z,100478.79
2018-04-08T18:32:26.737Z,100478.09
2018-04-08T18:34:52.483Z,100485.19
2018-04-08T18:37:18.219Z,100485.02
2018-04-08T18:39:43.977Z,100489.56
2018-04-08T18:42:09.716Z,100487.13
2018-04-08T18:44:35.458Z,100484.45
2018-04-08T18:47:01.201Z,100491.59
2018-04-08T18:49:26.924Z,100487.86
2018-04-08T18:51:52.684Z,100488.20
2018-04-08T18:54:18.440Z,100492.30
2018-04-08T18:56:44.195Z,100505.37
2018-04-08T18:59:09.934Z,100502.53
2018-04-08T19:01:35.671Z,100511.03
2018-04-08T19:04:01.415Z,100511.19
2018-04-08T19:06:27.173Z,100499.17
2018-04-08T19:08:52.914Z,100508.32
2018-04-08T19:11:18.654Z,100505.25
2018-04-08T19:13:44.394Z,100508.80
2018-04-08T19:16:10.166Z,100508.51
2018-04-08T19:18:35.905Z,100509.84
2018-04-08T19:21:01.651Z,100506.64
2018-04-08T19:23:27.382Z,100506.89
2018-04-08T19:25:53.128Z,100507.05
2018-04-08T19:28:18.881Z,100509.88
2018-04-08T19:30:44.636Z,100504.63
2018-04-08T19:33:10.379Z,100505.99
2018-04-08T19:35:36.125Z,100513.37
2018-04-08T19:38:01.879Z,100517.84
2018-04-08T19:40:27.615Z,100517.00
2018-04-08T19:42:53.354Z,100507.66
2018-04-08T19:45:19.101Z,100513.75
2018-04-08T19:47:44.850Z,100519.93
2018-04-08T19:50:10.591Z,100521.00
2018-04-08T19:52:36.369Z,100517.55
2018-04-08T19:55:02.177Z,100515.60
2018-04-08T19:57:27.957Z,100520.11
2018-04-08T19:59:53.683Z,100515.86
2018-04-08T20:02:19.435Z,100517.17
2018-04-08T20:04:45.175Z,100519.94
2018-04-08T20:07:10.912Z,100517.70
2018-04-08T20:09:36.730Z,100513.46
2018-04-08T20:12:02.699Z,100514.34
2018-04-08T20:14:28.457Z,100510.86
2018-04-08T20:16:54.194Z,100511.23
2018-04-08T20:19:19.925Z,100511.20
2018-04-08T20:21:45.680Z,100513.98
2018-04-08T20:24:13.306Z,100511.98
2018-04-08T20:26:39.068Z,100512.69
2018-04-08T20:29:04.811Z,100511.28
2018-04-08T20:31:30.691Z,100514.45
2018-04-08T20:33:56.448Z,100513.44
2018-04-08T20:36:24.007Z,100512.94
2018-04-08T20:38:49.826Z,100510.89
2018-04-08T20:41:15.570Z,100506.30
2018-04-08T20:43:41.316Z,100505.78
2018-04-08T20:46:07.028Z,100509.79
2018-04-08T20:48:32.793Z,100500.53
2018-04-08T20:50:58.517Z,100504.02
2018-04-08T20:53:24.270Z,100496.86
2018-04-08T20:55:50.035Z,100499.39
2018-04-08T20:58:15.782Z,100493.30
2018-04-08T21:00:41.531Z,100500.34
2018-04-08T21:03:07.266Z,100500.69
2018-04-08T21:05:32.991Z,100505.17
2018-04-08T21:07:58.738Z,100501.11
2018-04-08T21:10:24.469Z,100503.96
2018-04-08T21:12:50.261Z,100495.44
2018-04-08T21:15:15.969Z,100501.63
2018-04-08T21:17:41.697Z,100502.33
2018-04-08T21:20:07.446Z,100501.41
2018-04-08T21:22:33.191Z,100503.45
2018-04-08T21:24:58.942Z,100496.62
2018-04-08T21:27:24.674Z,100496.67
2018-04-08T21:29:50.426Z,100500.27
2018-04-08T21:32:16.166Z,100497.60
2018-04-08T21:34:41.923Z,100502.91
2018-04-08T21:37:07.650Z,100502.53
2018-04-08T21:39:33.397Z,100506.70
2018-04-08T21:41:59.126Z,100503.20
2018-04-08T21:44:24.892Z,100506.09
2018-04-08T21:46:50.665Z,100506.31
2018-04-08T21:49:16.385Z,100512.48
2018-04-08T21:51:42.118Z,100515.58
2018-04-08T21:54:07.862Z,100508.59
2018-04-08T21:56:33.581Z,100511.45
2018-04-08T21:58:59.333Z,100513.09
2018-04-08T22:01:25.061Z,100514.53
2018-04-08T22:03:50.810Z,100517.09
2018-04-08T22:06:16.554Z,100515.53
2018-04-08T22:08:42.269Z,100510.95
2018-04-08T22:11:08.012Z,100509.95
2018-04-08T22:13:33.745Z,100511.30
2018-04-08T22:15:59.495Z,100512.28
2018-04-08T22:18:25.223Z,100506.19
2018-04-08T22:20:50.959Z,100508.73
2018-04-08T22:23:16.691Z,100507.03
2018-04-08T22:25:42.426Z,100509.32
2018-04-08T22:28:08.165Z,100511.20
2018-04-08T22:30:33.902Z,100512.45
2018-04-08T22:32:59.642Z,100510.47
2018-04-08T22:35:25.370Z,100511.04
2018-04-08T22:37:51.118Z,100516.77
2018-04-08T22:40:16.850Z,100513.06
2018-04-08T22:42:42.589Z,100517.00
2018-04-08T22:45:08.327Z,100512.75
2018-04-08T22:47:34.073Z,100512.29
2018-04-08T22:49:59.830Z,100509.58
2018-04-08T22:52:25.583Z,100511.83
2018-04-08T22:54:51.334Z,100508.78
2018-04-08T22:57:17.088Z,100505.93
2018-04-08T22:59:42.841Z,100508.09
2018-04-08T23:02:08.582Z,100501.76
2018-04-08T23:04:34.314Z,100500.81
2018-04-08T23:07:00.053Z,100505.30
2018-04-08T23:09:25.794Z,100510.03
2018-04-08T23:11:51.539Z,100513.67
2018-04-08T23:14:17.265Z,100510.41
2018-04-08T23:16:43.006Z,100509.12
2018-04-08T23:19:08.742Z,100507.13
2018-04-08T23:21:34.486Z,100507.39
2018-04-08T23:24:00.234Z,100504.23
2018-04-08T23:26:25.961Z,100498.23
2018-04-08T23:28:51.712Z,100496.38
2018-04-08T23:31:17.450Z,100487.72
2018-04-08T23:33:43.180Z,100488.02
2018-04-08T23:36:08.921Z,100477.88
2018-04-08T23:38:34.655Z,100469.84
2018-04-08T23:41:00.414Z,100478.32
2018-04-08T23:43:26.146Z,100473.05
2018-04-08T23:45:51.898Z,100471.13
2018-04-08T23:48:17.648Z,100471.80
2018-04-08T23:50:43.378Z,100473.83
2018-04-08T23:53:09.129Z,100472.70
2018-04-08T23:55:34.886Z,100475.97
2018-04-08T23:58:00.637Z,100473.48
